^^
Saratoga-Weather Station Historical Data
Daily Summary for September 27, 2021 Units:  Metric    English   Both
Daily Weekly Monthly Yearly Custom
  High: Low: Average:
Temperature: 16.1 °C 12.9 °C 14 °C
Dew Point: 14.5 °C 12.3 °C 13.1 °C
Humidity: 96% 89% 94%
Wind Speed: 0km/h 0km/h 0km/h
Wind Gust: 4.8km/h - -
Wind- -
Pressure: 1016.9 hPa 1015.6 hPa -
Precipitation: 0.0 mm    
Historical Graphs
 
 
Tabular Data for September 27, 2021
Time Temperature Dew Point Pressure Wind Wind Speed Wind Gust Humidity Rainfall Rate (Hourly) solar
00:03 16.1 °C 14.5 °C 1016.6 hPa Calm   4.8 km/h 90% 0.0 mm 0 W/m2
00:08 16.1 °C 14.5 °C 1016.6 hPa Calm   4.8 km/h 90% 0.0 mm 0 W/m2
00:13 16.1 °C 14.5 °C 1016.6 hPa Calm   1.6 km/h 90% 0.0 mm 0 W/m2
00:19 16.1 °C 14.3 °C 1016.6 hPa Calm   4.8 km/h 89% 0.0 mm 0 W/m2
00:24 16 °C 14.2 °C 1016.6 hPa Calm     89% 0.0 mm 0 W/m2
00:29 15.9 °C 14.3 °C 1016.6 hPa Calm   3.2 km/h 90% 0.0 mm 0 W/m2
00:34 15.8 °C 14.2 °C 1016.6 hPa Calm   1.6 km/h 90% 0.0 mm 0 W/m2
00:39 15.6 °C 14 °C 1016.9 hPa Calm     90% 0.0 mm 0 W/m2
00:44 15.4 °C 13.9 °C 1016.9 hPa Calm     91% 0.0 mm 0 W/m2
00:49 15.3 °C 13.8 °C 1016.6 hPa Calm   1.6 km/h 91% 0.0 mm 0 W/m2
00:54 15.1 °C 13.6 °C 1016.6 hPa Calm     91% 0.0 mm 0 W/m2
00:59 14.9 °C 13.6 °C 1016.6 hPa Calm   3.2 km/h 92% 0.0 mm 0 W/m2
01:04 14.8 °C 13.5 °C 1016.6 hPa Calm     92% 0.0 mm 0 W/m2
01:09 14.7 °C 13.4 °C 1016.6 hPa Calm     92% 0.0 mm 0 W/m2
01:14 14.5 °C 13.2 °C 1016.6 hPa Calm     92% 0.0 mm 0 W/m2
01:19 14.4 °C 13.3 °C 1016.6 hPa Calm     93% 0.0 mm 0 W/m2
01:24 14.3 °C 13.2 °C 1016.6 hPa Calm     93% 0.0 mm 0 W/m2
01:29 14.3 °C 13.2 °C 1016.6 hPa Calm     93% 0.0 mm 0 W/m2
01:34 14.2 °C 13.2 °C 1016.6 hPa Calm     94% 0.0 mm 0 W/m2
01:39 14.2 °C 13.2 °C 1016.6 hPa Calm     94% 0.0 mm 0 W/m2
01:44 14.1 °C 13.1 °C 1016.6 hPa Calm     94% 0.0 mm 0 W/m2
01:49 14 °C 13 °C 1016.6 hPa Calm     94% 0.0 mm 0 W/m2
01:54 13.9 °C 12.9 °C 1016.6 hPa Calm     94% 0.0 mm 0 W/m2
01:59 13.9 °C 12.9 °C 1016.6 hPa Calm     94% 0.0 mm 0 W/m2
02:04 13.9 °C 13.1 °C 1016.6 hPa Calm     95% 0.0 mm 0 W/m2
02:09 13.9 °C 13.1 °C 1016.6 hPa Calm     95% 0.0 mm 0 W/m2
02:14 13.9 °C 13.1 °C 1016.6 hPa Calm     95% 0.0 mm 0 W/m2
02:19 13.9 °C 13.1 °C 1016.6 hPa Calm     95% 0.0 mm 0 W/m2
02:24 13.9 °C 13.1 °C 1016.6 hPa Calm     95% 0.0 mm 0 W/m2
02:29 13.8 °C 13 °C 1016.6 hPa Calm     95% 0.0 mm 0 W/m2
02:34 13.8 °C 13 °C 1016.6 hPa Calm     95% 0.0 mm 0 W/m2
02:39 13.7 °C 12.9 °C 1016.6 hPa Calm     95% 0.0 mm 0 W/m2
02:44 13.7 °C 12.9 °C 1016.6 hPa Calm     95% 0.0 mm 0 W/m2
02:49 13.7 °C 12.9 °C 1016.6 hPa Calm     95% 0.0 mm 0 W/m2
02:54 13.7 °C 12.9 °C 1016.6 hPa Calm     95% 0.0 mm 0 W/m2
02:59 13.7 °C 12.9 °C 1016.6 hPa Calm     95% 0.0 mm 0 W/m2
03:04 13.6 °C 12.8 °C 1016.6 hPa Calm     95% 0.0 mm 0 W/m2
03:09 13.7 °C 13.1 °C 1016.6 hPa Calm     96% 0.0 mm 0 W/m2
03:14 13.7 °C 13.1 °C 1016.3 hPa Calm     96% 0.0 mm 0 W/m2
03:19 13.7 °C 13.1 °C 1016.3 hPa Calm   1.6 km/h 96% 0.0 mm 0 W/m2
03:24 13.7 °C 13.1 °C 1016.3 hPa Calm     96% 0.0 mm 0 W/m2
03:29 13.7 °C 13.1 °C 1016.3 hPa Calm     96% 0.0 mm 0 W/m2
03:34 13.7 °C 13.1 °C 1016.3 hPa Calm     96% 0.0 mm 0 W/m2
03:39 13.7 °C 13.1 °C 1016.3 hPa Calm   1.6 km/h 96% 0.0 mm 0 W/m2
03:44 13.7 °C 13.1 °C 1016.3 hPa Calm   1.6 km/h 96% 0.0 mm 0 W/m2
03:49 13.7 °C 13.1 °C 1016.3 hPa Calm     96% 0.0 mm 0 W/m2
03:54 13.6 °C 13 °C 1016.3 hPa Calm     96% 0.0 mm 0 W/m2
03:59 13.6 °C 13 °C 1016.3 hPa Calm     96% 0.0 mm 0 W/m2
04:04 13.5 °C 12.9 °C 1016.3 hPa Calm     96% 0.0 mm 0 W/m2
04:09 13.4 °C 12.8 °C 1016.3 hPa Calm     96% 0.0 mm 0 W/m2
04:14 13.3 °C 12.7 °C 1015.9 hPa Calm     96% 0.0 mm 0 W/m2
04:19 13.3 °C 12.7 °C 1015.9 hPa Calm     96% 0.0 mm 0 W/m2
04:24 13.2 °C 12.6 °C 1015.9 hPa Calm     96% 0.0 mm 0 W/m2
04:29 13.2 °C 12.6 °C 1015.9 hPa Calm     96% 0.0 mm 0 W/m2
04:34 13.2 °C 12.6 °C 1016.3 hPa Calm     96% 0.0 mm 0 W/m2
04:39 13.2 °C 12.6 °C 1016.3 hPa Calm     96% 0.0 mm 0 W/m2
04:44 13.2 °C 12.6 °C 1015.9 hPa Calm     96% 0.0 mm 0 W/m2
04:49 13.1 °C 12.5 °C 1015.9 hPa Calm     96% 0.0 mm 0 W/m2
04:54 13.1 °C 12.5 °C 1015.9 hPa Calm     96% 0.0 mm 0 W/m2
04:59 13.1 °C 12.5 °C 1015.9 hPa Calm     96% 0.0 mm 0 W/m2
05:05 13.1 °C 12.5 °C 1015.9 hPa Calm     96% 0.0 mm 0 W/m2
05:10 13.1 °C 12.5 °C 1015.9 hPa Calm     96% 0.0 mm 0 W/m2
05:15 13.1 °C 12.5 °C 1015.9 hPa Calm     96% 0.0 mm 0 W/m2
05:20 13.1 °C 12.5 °C 1015.9 hPa Calm     96% 0.0 mm 0 W/m2
05:25 13.1 °C 12.5 °C 1015.9 hPa Calm     96% 0.0 mm 0 W/m2
05:30 13.1 °C 12.5 °C 1015.9 hPa Calm     96% 0.0 mm 0 W/m2
05:35 13 °C 12.4 °C 1015.9 hPa Calm     96% 0.0 mm 0 W/m2
05:40 13 °C 12.4 °C 1015.9 hPa Calm     96% 0.0 mm 0 W/m2
05:45 12.9 °C 12.3 °C 1015.9 hPa Calm     96% 0.0 mm 0 W/m2
05:50 12.9 °C 12.3 °C 1015.6 hPa Calm     96% 0.0 mm 0 W/m2
05:55 12.9 °C 12.3 °C 1015.9 hPa Calm     96% 0.0 mm 0 W/m2
Juneau County Weather
Compliments of Weather Underground - 2 mb